sensor_id;sensor_type;location;lat;lon;timestamp;pressure;altitude;pressure_sealevel;temperature;humidity
40574;BME280;26283;49.020;8.644;2023-07-31T00:00:26;99278.69;;;22.58;52.50
40574;BME280;26283;49.020;8.644;2023-07-31T00:02:52;99284.16;;;22.58;52.48
40574;BME280;26283;49.020;8.644;2023-07-31T00:05:17;99281.72;;;22.57;52.50
40574;BME280;26283;49.020;8.644;2023-07-31T00:07:43;99275.41;;;22.56;52.55
40574;BME280;26283;49.020;8.644;2023-07-31T00:10:08;99271.84;;;22.56;52.63
40574;BME280;26283;49.020;8.644;2023-07-31T00:12:34;99272.97;;;22.55;52.64
40574;BME280;26283;49.020;8.644;2023-07-31T00:14:59;99266.66;;;22.54;52.59
40574;BME280;26283;49.020;8.644;2023-07-31T00:17:25;99269.69;;;22.53;52.54
40574;BME280;26283;49.020;8.644;2023-07-31T00:19:50;99273.53;;;22.52;52.58
40574;BME280;26283;49.020;8.644;2023-07-31T00:22:16;99268.06;;;22.52;52.61
40574;BME280;26283;49.020;8.644;2023-07-31T00:24:41;99266.44;;;22.51;52.61
40574;BME280;26283;49.020;8.644;2023-07-31T00:27:07;99271.94;;;22.51;52.55
40574;BME280;26283;49.020;8.644;2023-07-31T00:29:32;99261.25;;;22.49;52.56
40574;BME280;26283;49.020;8.644;2023-07-31T00:31:57;99262.37;;;22.48;52.63
40574;BME280;26283;49.020;8.644;2023-07-31T00:34:23;99265.09;;;22.48;52.62
40574;BME280;26283;49.020;8.644;2023-07-31T00:36:48;99255.25;;;22.47;52.62
40574;BME280;26283;49.020;8.644;2023-07-31T00:39:13;99255.25;;;22.47;52.65
40574;BME280;26283;49.020;8.644;2023-07-31T00:41:39;99252.78;;;22.46;52.64
40574;BME280;26283;49.020;8.644;2023-07-31T00:44:04;99251.97;;;22.45;52.61
40574;BME280;26283;49.020;8.644;2023-07-31T00:46:29;99253.06;;;22.44;52.59
40574;BME280;26283;49.020;8.644;2023-07-31T00:48:56;99248.69;;;22.43;52.54
40574;BME280;26283;49.020;8.644;2023-07-31T00:51:22;99253.37;;;22.43;52.62
40574;BME280;26283;49.020;8.644;2023-07-31T00:53:47;99253.66;;;22.41;52.65
40574;BME280;26283;49.020;8.644;2023-07-31T00:56:13;99255.59;;;22.41;52.63
40574;BME280;26283;49.020;8.644;2023-07-31T00:58:38;99242.16;;;22.39;52.48
40574;BME280;26283;49.020;8.644;2023-07-31T01:01:04;99240.22;;;22.40;52.44
40574;BME280;26283;49.020;8.644;2023-07-31T01:03:30;99235.84;;;22.39;52.49
40574;BME280;26283;49.020;8.644;2023-07-31T01:06:22;99235.03;;;22.38;52.67
40574;BME280;26283;49.020;8.644;2023-07-31T01:09:02;99238.91;;;22.37;52.97
40574;BME280;26283;49.020;8.644;2023-07-31T01:11:33;99233.41;;;22.37;52.80
40574;BME280;26283;49.020;8.644;2023-07-31T01:13:59;99223.00;;;22.34;52.72
40574;BME280;26283;49.020;8.644;2023-07-31T01:16:26;99227.69;;;22.34;52.55
40574;BME280;26283;49.020;8.644;2023-07-31T01:18:52;99228.50;;;22.34;52.54
40574;BME280;26283;49.020;8.644;2023-07-31T01:26:49;99231.03;;;22.31;52.82
40574;BME280;26283;49.020;8.644;2023-07-31T01:29:38;99222.78;;;22.31;52.56
40574;BME280;26283;49.020;8.644;2023-07-31T01:32:08;99221.47;;;22.28;52.87
40574;BME280;26283;49.020;8.644;2023-07-31T01:34:35;99223.41;;;22.28;52.48
40574;BME280;26283;49.020;8.644;2023-07-31T01:37:02;99219.31;;;22.25;52.54
40574;BME280;26283;49.020;8.644;2023-07-31T01:39:28;99220.94;;;22.26;52.57
40574;BME280;26283;49.020;8.644;2023-07-31T01:41:53;99218.50;;;22.25;52.55
40574;BME280;26283;49.020;8.644;2023-07-31T01:44:19;99213.81;;;22.25;52.56
40574;BME280;26283;49.020;8.644;2023-07-31T01:46:44;99212.19;;;22.24;52.65
40574;BME280;26283;49.020;8.644;2023-07-31T01:49:09;99202.31;;;22.23;52.65
40574;BME280;26283;49.020;8.644;2023-07-31T01:51:35;99209.75;;;22.22;52.64
40574;BME280;26283;49.020;8.644;2023-07-31T01:54:01;99194.38;;;22.21;52.63
40574;BME280;26283;49.020;8.644;2023-07-31T01:56:26;99199.06;;;22.21;52.70
40574;BME280;26283;49.020;8.644;2023-07-31T01:58:52;99191.94;;;22.20;52.78
40574;BME280;26283;49.020;8.644;2023-07-31T02:01:17;99194.69;;;22.20;52.80
40574;BME280;26283;49.020;8.644;2023-07-31T02:03:43;99185.91;;;22.18;52.79
40574;BME280;26283;49.020;8.644;2023-07-31T02:06:08;99184.81;;;22.19;52.78
40574;BME280;26283;49.020;8.644;2023-07-31T02:08:33;99180.44;;;22.18;52.87
40574;BME280;26283;49.020;8.644;2023-07-31T02:10:59;99185.09;;;22.17;52.84
40574;BME280;26283;49.020;8.644;2023-07-31T02:13:25;99177.97;;;22.16;52.87
40574;BME280;26283;49.020;8.644;2023-07-31T02:15:50;99180.72;;;22.16;52.94
40574;BME280;26283;49.020;8.644;2023-07-31T02:18:16;99167.28;;;22.15;52.85
40574;BME280;26283;49.020;8.644;2023-07-31T02:20:41;99169.22;;;22.14;52.85
40574;BME280;26283;49.020;8.644;2023-07-31T02:23:07;99162.91;;;22.14;52.89
40574;BME280;26283;49.020;8.644;2023-07-31T02:25:32;99159.34;;;22.13;52.95
40574;BME280;26283;49.020;8.644;2023-07-31T02:27:58;99159.66;;;22.12;52.93
40574;BME280;26283;49.020;8.644;2023-07-31T02:30:23;99156.91;;;22.12;53.07
40574;BME280;26283;49.020;8.644;2023-07-31T02:32:48;99158.03;;;22.11;53.00
40574;BME280;26283;49.020;8.644;2023-07-31T02:35:14;99161.06;;;22.09;53.01
40574;BME280;26283;49.020;8.644;2023-07-31T02:37:41;99154.75;;;22.09;53.05
40574;BME280;26283;49.020;8.644;2023-07-31T02:40:07;99151.22;;;22.08;53.14
40574;BME280;26283;49.020;8.644;2023-07-31T02:42:32;99152.34;;;22.07;53.26
40574;BME280;26283;49.020;8.644;2023-07-31T02:44:58;99151.53;;;22.07;53.34
40574;BME280;26283;49.020;8.644;2023-07-31T02:47:23;99149.88;;;22.06;53.31
40574;BME280;26283;49.020;8.644;2023-07-31T02:49:49;99151.81;;;22.05;53.31
40574;BME280;26283;49.020;8.644;2023-07-31T02:52:14;99154.56;;;22.05;53.35
40574;BME280;26283;49.020;8.644;2023-07-31T02:54:39;99152.09;;;22.04;53.44
40574;BME280;26283;49.020;8.644;2023-07-31T02:57:05;99154.03;;;22.03;53.43
40574;BME280;26283;49.020;8.644;2023-07-31T02:59:31;99158.72;;;22.03;53.45
40574;BME280;26283;49.020;8.644;2023-07-31T03:01:56;99162.56;;;22.02;53.53
40574;BME280;26283;49.020;8.644;2023-07-31T03:04:22;99163.66;;;22.01;53.58
40574;BME280;26283;49.020;8.644;2023-07-31T03:06:47;99159.81;;;22.02;53.52
40574;BME280;26283;49.020;8.644;2023-07-31T03:09:12;99159.25;;;22.00;53.47
40574;BME280;26283;49.020;8.644;2023-07-31T03:11:38;99154.06;;;21.98;53.37
40574;BME280;26283;49.020;8.644;2023-07-31T03:14:03;99152.44;;;21.97;53.30
40574;BME280;26283;49.020;8.644;2023-07-31T03:16:28;99164.22;;;21.98;53.33
40574;BME280;26283;49.020;8.644;2023-07-31T03:18:54;99165.34;;;21.97;53.38
40574;BME280;26283;49.020;8.644;2023-07-31T03:21:20;99154.37;;;21.97;53.42
40574;BME280;26283;49.020;8.644;2023-07-31T03:23:45;99159.03;;;21.96;53.37
40574;BME280;26283;49.020;8.644;2023-07-31T03:26:10;99165.63;;;21.95;53.31
40574;BME280;26283;49.020;8.644;2023-07-31T03:28:36;99162.06;;;21.95;53.26
40574;BME280;26283;49.020;8.644;2023-07-31T03:31:01;99164.00;;;21.94;53.25
40574;BME280;26283;49.020;8.644;2023-07-31T03:33:27;99164.28;;;21.93;53.26
40574;BME280;26283;49.020;8.644;2023-07-31T03:35:52;99161.56;;;21.93;53.29
40574;BME280;26283;49.020;8.644;2023-07-31T03:38:19;99149.75;;;21.92;53.29
40574;BME280;26283;49.020;8.644;2023-07-31T03:40:44;99141.81;;;21.90;53.35
40574;BME280;26283;49.020;8.644;2023-07-31T03:43:10;99147.31;;;21.90;53.33
40574;BME280;26283;49.020;8.644;2023-07-31T03:45:35;99140.19;;;21.89;53.26
40574;BME280;26283;49.020;8.644;2023-07-31T03:48:01;99156.66;;;21.89;53.21
40574;BME280;26283;49.020;8.644;2023-07-31T03:50:26;99157.75;;;21.88;53.27
40574;BME280;26283;49.020;8.644;2023-07-31T03:52:52;99155.00;;;21.88;53.31
40574;BME280;26283;49.020;8.644;2023-07-31T03:55:17;99153.38;;;21.87;53.32
40574;BME280;26283;49.020;8.644;2023-07-31T03:57:43;99151.78;;;21.86;53.27
40574;BME280;26283;49.020;8.644;2023-07-31T04:00:09;99160.00;;;21.86;53.30
40574;BME280;26283;49.020;8.644;2023-07-31T04:02:35;99158.38;;;21.85;53.32
40574;BME280;26283;49.020;8.644;2023-07-31T04:05:00;99151.25;;;21.84;53.28
40574;BME280;26283;49.020;8.644;2023-07-31T04:07:26;99150.44;;;21.84;53.23
40574;BME280;26283;49.020;8.644;2023-07-31T04:09:51;99153.19;;;21.84;53.24
40574;BME280;26283;49.020;8.644;2023-07-31T04:12:16;99159.78;;;21.83;53.21
40574;BME280;26283;49.020;8.644;2023-07-31T04:14:42;99159.78;;;21.83;53.20
40574;BME280;26283;49.020;8.644;2023-07-31T04:17:07;99154.59;;;21.81;53.22
40574;BME280;26283;49.020;8.644;2023-07-31T04:19:32;99159.25;;;21.81;53.23
40574;BME280;26283;49.020;8.644;2023-07-31T04:21:58;99158.44;;;21.80;53.22
40574;BME280;26283;49.020;8.644;2023-07-31T04:24:23;99157.63;;;21.80;53.20
40574;BME280;26283;49.020;8.644;2023-07-31T04:26:52;99156.81;;;21.79;53.23
40574;BME280;26283;49.020;8.644;2023-07-31T04:29:17;99157.91;;;21.78;53.33
40574;BME280;26283;49.020;8.644;2023-07-31T04:31:43;99163.41;;;21.78;53.47
40574;BME280;26283;49.020;8.644;2023-07-31T04:34:08;99159.03;;;21.77;53.56
40574;BME280;26283;49.020;8.644;2023-07-31T04:36:34;99153.53;;;21.77;53.51
40574;BME280;26283;49.020;8.644;2023-07-31T04:39:00;99148.34;;;21.76;53.42
40574;BME280;26283;49.020;8.644;2023-07-31T04:41:26;99147.53;;;21.75;53.38
40574;BME280;26283;49.020;8.644;2023-07-31T04:43:51;99150.28;;;21.75;53.36
40574;BME280;26283;49.020;8.644;2023-07-31T04:46:17;99144.25;;;21.73;53.38
40574;BME280;26283;49.020;8.644;2023-07-31T04:48:42;99142.34;;;21.74;53.38
40574;BME280;26283;49.020;8.644;2023-07-31T04:51:08;99137.97;;;21.73;53.36
40574;BME280;26283;49.020;8.644;2023-07-31T04:53:35;99131.66;;;21.72;53.40
40574;BME280;26283;49.020;8.644;2023-07-31T04:56:00;99136.31;;;21.72;53.42
40574;BME280;26283;49.020;8.644;2023-07-31T04:58:26;99132.75;;;21.71;53.41
40574;BME280;26283;49.020;8.644;2023-07-31T05:00:51;99135.78;;;21.70;53.39
40574;BME280;26283;49.020;8.644;2023-07-31T05:03:17;99133.34;;;21.68;53.35
40574;BME280;26283;49.020;8.644;2023-07-31T05:05:42;99134.16;;;21.69;53.43
40574;BME280;26283;49.020;8.644;2023-07-31T05:08:07;99138.00;;;21.68;53.50
40574;BME280;26283;49.020;8.644;2023-07-31T05:10:33;99134.47;;;21.67;53.44
40574;BME280;26283;49.020;8.644;2023-07-31T05:12:58;99139.94;;;21.67;53.43
40574;BME280;26283;49.020;8.644;2023-07-31T05:15:23;99135.56;;;21.66;53.44
40574;BME280;26283;49.020;8.644;2023-07-31T05:17:49;99136.38;;;21.67;53.46
40574;BME280;26283;49.020;8.644;2023-07-31T05:20:14;99139.41;;;21.65;53.62
40574;BME280;26283;49.020;8.644;2023-07-31T05:22:40;99131.19;;;21.65;53.58
40574;BME280;26283;49.020;8.644;2023-07-31T05:25:06;99152.34;;;21.65;54.85
40574;BME280;26283;49.020;8.644;2023-07-31T05:27:32;99152.53;;;21.68;54.68
40574;BME280;26283;49.020;8.644;2023-07-31T05:29:58;99154.19;;;21.69;54.63
40574;BME280;26283;49.020;8.644;2023-07-31T05:32:23;99150.62;;;21.69;54.63
40574;BME280;26283;49.020;8.644;2023-07-31T05:34:51;99152.53;;;21.68;54.62
40574;BME280;26283;49.020;8.644;2023-07-31T05:37:17;99154.19;;;21.69;54.64
40574;BME280;26283;49.020;8.644;2023-07-31T05:39:42;99162.41;;;21.69;54.68
40574;BME280;26283;49.020;8.644;2023-07-31T05:42:08;99156.91;;;21.69;54.75
40574;BME280;26283;49.020;8.644;2023-07-31T05:44:33;99157.50;;;21.66;54.80
40574;BME280;26283;49.020;8.644;2023-07-31T05:46:59;99157.50;;;21.66;54.87
40574;BME280;26283;49.020;8.644;2023-07-31T05:49:24;99159.44;;;21.66;54.91
40574;BME280;26283;49.020;8.644;2023-07-31T05:51:50;99157.50;;;21.66;54.95
40574;BME280;26283;49.020;8.644;2023-07-31T05:54:15;99144.91;;;21.65;54.98
40574;BME280;26283;49.020;8.644;2023-07-31T05:56:40;99145.22;;;21.64;55.02
40574;BME280;26283;49.020;8.644;2023-07-31T05:59:06;99150.72;;;21.64;55.04
40574;BME280;26283;49.020;8.644;2023-07-31T06:01:31;99153.44;;;21.64;55.08
40574;BME280;26283;49.020;8.644;2023-07-31T06:03:57;99141.66;;;21.63;55.10
40574;BME280;26283;49.020;8.644;2023-07-31T06:06:22;99148.78;;;21.64;55.13
40574;BME280;26283;49.020;8.644;2023-07-31T06:08:47;99150.72;;;21.64;55.15
40574;BME280;26283;49.020;8.644;2023-07-31T06:11:13;99142.78;;;21.62;55.17
40574;BME280;26283;49.020;8.644;2023-07-31T06:13:38;99145.50;;;21.62;55.20
40574;BME280;26283;49.020;8.644;2023-07-31T06:16:04;99149.88;;;21.63;55.23
40574;BME280;26283;49.020;8.644;2023-07-31T06:18:32;99153.75;;;21.62;55.23
40574;BME280;26283;49.020;8.644;2023-07-31T06:20:58;99141.97;;;21.62;55.25
40574;BME280;26283;49.020;8.644;2023-07-31T06:23:23;99145.50;;;21.62;55.27
40574;BME280;26283;49.020;8.644;2023-07-31T06:25:49;99138.41;;;21.61;55.28
40574;BME280;26283;49.020;8.644;2023-07-31T06:28:14;99139.50;;;21.60;55.29
40574;BME280;26283;49.020;8.644;2023-07-31T06:30:39;99140.31;;;21.61;55.32
40574;BME280;26283;49.020;8.644;2023-07-31T06:33:05;99139.50;;;21.60;55.34
40574;BME280;26283;49.020;8.644;2023-07-31T06:35:30;99139.50;;;21.60;55.35
40574;BME280;26283;49.020;8.644;2023-07-31T06:37:56;99143.06;;;21.61;55.36
40574;BME280;26283;49.020;8.644;2023-07-31T06:40:22;99142.25;;;21.60;55.37
40574;BME280;26283;49.020;8.644;2023-07-31T06:42:47;99142.53;;;21.59;55.40
40574;BME280;26283;49.020;8.644;2023-07-31T06:45:13;99145.28;;;21.59;55.42
40574;BME280;26283;49.020;8.644;2023-07-31T06:47:38;99143.34;;;21.59;55.42
40574;BME280;26283;49.020;8.644;2023-07-31T06:50:04;99146.09;;;21.59;55.44
40574;BME280;26283;49.020;8.644;2023-07-31T06:52:30;99142.53;;;21.59;55.47
40574;BME280;26283;49.020;8.644;2023-07-31T06:57:45;99135.13;;;21.59;55.52
40574;BME280;26283;49.020;8.644;2023-07-31T07:00:13;99138.97;;;21.58;55.49
40574;BME280;26283;49.020;8.644;2023-07-31T07:02:38;99135.13;;;21.59;55.52
40574;BME280;26283;49.020;8.644;2023-07-31T07:05:04;99136.53;;;21.57;55.53
40574;BME280;26283;49.020;8.644;2023-07-31T07:07:29;99135.41;;;21.58;55.54
40574;BME280;26283;49.020;8.644;2023-07-31T07:09:55;99135.41;;;21.58;55.55
40574;BME280;26283;49.020;8.644;2023-07-31T07:12:20;99139.28;;;21.57;55.55
40574;BME280;26283;49.020;8.644;2023-07-31T07:14:45;99137.88;;;21.59;55.57
40574;BME280;26283;49.020;8.644;2023-07-31T07:17:13;99132.69;;;21.58;55.57
40574;BME280;26283;49.020;8.644;2023-07-31T07:19:40;99128.00;;;21.58;55.60
40574;BME280;26283;49.020;8.644;2023-07-31T07:22:06;99128.00;;;21.58;55.60
40574;BME280;26283;49.020;8.644;2023-07-31T07:24:31;99117.03;;;21.58;55.60
40574;BME280;26283;49.020;8.644;2023-07-31T07:26:56;99124.47;;;21.58;55.61
40574;BME280;26283;49.020;8.644;2023-07-31T07:29:22;99120.91;;;21.57;55.59
40574;BME280;26283;49.020;8.644;2023-07-31T07:31:47;99128.00;;;21.58;55.60
40574;BME280;26283;49.020;8.644;2023-07-31T07:34:13;99120.59;;;21.59;55.59
40574;BME280;26283;49.020;8.644;2023-07-31T07:36:38;99121.72;;;21.58;55.60
40574;BME280;26283;49.020;8.644;2023-07-31T07:39:03;99130.75;;;21.58;55.61
40574;BME280;26283;49.020;8.644;2023-07-31T07:41:29;99122.53;;;21.58;55.62
40574;BME280;26283;49.020;8.644;2023-07-31T07:43:54;99122.53;;;21.58;55.63
40574;BME280;26283;49.020;8.644;2023-07-31T07:46:19;99118.97;;;21.58;55.63
40574;BME280;26283;49.020;8.644;2023-07-31T07:48:45;99117.03;;;21.58;55.63
40574;BME280;26283;49.020;8.644;2023-07-31T07:51:10;99115.13;;;21.59;55.64
40574;BME280;26283;49.020;8.644;2023-07-31T07:53:35;99111.56;;;21.58;55.62
40574;BME280;26283;49.020;8.644;2023-07-31T07:56:01;99112.38;;;21.59;55.61
40574;BME280;26283;49.020;8.644;2023-07-31T07:58:26;99113.19;;;21.59;55.61
40574;BME280;26283;49.020;8.644;2023-07-31T08:00:52;99110.44;;;21.59;55.60
40574;BME280;26283;49.020;8.644;2023-07-31T08:03:17;99104.97;;;21.59;55.60
40574;BME280;26283;49.020;8.644;2023-07-31T08:05:43;99098.38;;;21.60;55.59
40574;BME280;26283;49.020;8.644;2023-07-31T08:08:14;99105.78;;;21.60;55.58
40574;BME280;26283;49.020;8.644;2023-07-31T08:10:41;99109.34;;;21.60;55.59
40574;BME280;26283;49.020;8.644;2023-07-31T08:13:07;99106.59;;;21.60;55.56
40574;BME280;26283;49.020;8.644;2023-07-31T08:15:32;99108.22;;;21.61;55.53
40574;BME280;26283;49.020;8.644;2023-07-31T08:17:57;99099.19;;;21.61;55.53
40574;BME280;26283;49.020;8.644;2023-07-31T08:20:23;99116.47;;;21.61;55.52
40574;BME280;26283;49.020;8.644;2023-07-31T08:22:48;99105.50;;;21.61;55.51
40574;BME280;26283;49.020;8.644;2023-07-31T08:25:14;99109.87;;;21.62;55.51
40574;BME280;26283;49.020;8.644;2023-07-31T08:27:43;99110.97;;;21.61;55.51
40574;BME280;26283;49.020;8.644;2023-07-31T08:30:08;99097.78;;;21.63;55.51
40574;BME280;26283;49.020;8.644;2023-07-31T08:32:34;99103.28;;;21.63;55.49
40574;BME280;26283;49.020;8.644;2023-07-31T08:34:59;99098.91;;;21.62;55.51
40574;BME280;26283;49.020;8.644;2023-07-31T08:37:25;99102.47;;;21.63;55.48
40574;BME280;26283;49.020;8.644;2023-07-31T08:39:50;99100.53;;;21.63;55.45
40574;BME280;26283;49.020;8.644;2023-07-31T08:42:16;99099.41;;;21.64;55.43
40574;BME280;26283;49.020;8.644;2023-07-31T08:44:43;99102.97;;;21.65;55.41
40574;BME280;26283;49.020;8.644;2023-07-31T08:47:09;99088.44;;;21.64;55.40
40574;BME280;26283;49.020;8.644;2023-07-31T08:49:35;99084.91;;;21.64;55.38
40574;BME280;26283;49.020;8.644;2023-07-31T08:52:02;99089.28;;;21.65;55.37
40574;BME280;26283;49.020;8.644;2023-07-31T08:54:28;99077.16;;;21.66;55.35
40574;BME280;26283;49.020;8.644;2023-07-31T08:56:56;99073.59;;;21.65;55.35
40574;BME280;26283;49.020;8.644;2023-07-31T08:59:23;99066.19;;;21.66;55.33
40574;BME280;26283;49.020;8.644;2023-07-31T09:01:50;99071.37;;;21.67;55.31
40574;BME280;26283;49.020;8.644;2023-07-31T09:04:19;99082.34;;;21.67;55.27
40574;BME280;26283;49.020;8.644;2023-07-31T09:06:45;99070.28;;;21.68;55.25
40574;BME280;26283;49.020;8.644;2023-07-31T09:09:13;99061.22;;;21.68;55.23
40574;BME280;26283;49.020;8.644;2023-07-31T09:11:39;99063.69;;;21.69;55.24
40574;BME280;26283;49.020;8.644;2023-07-31T09:14:05;99069.97;;;21.70;55.21
40574;BME280;26283;49.020;8.644;2023-07-31T09:16:34;99060.62;;;21.71;55.17
40574;BME280;26283;49.020;8.644;2023-07-31T09:19:00;99064.19;;;21.71;55.15
40574;BME280;26283;49.020;8.644;2023-07-31T09:21:28;99052.12;;;21.72;55.14
40574;BME280;26283;49.020;8.644;2023-07-31T09:23:53;99043.88;;;21.72;55.08
40574;BME280;26283;49.020;8.644;2023-07-31T09:28:59;99045.22;;;21.75;55.03
40574;BME280;26283;49.020;8.644;2023-07-31T09:34:04;99032.31;;;21.75;55.00
40574;BME280;26283;49.020;8.644;2023-07-31T09:36:30;99033.97;;;21.76;54.96
40574;BME280;26283;49.020;8.644;2023-07-31T09:39:04;99020.25;;;21.76;54.96
40574;BME280;26283;49.020;8.644;2023-07-31T09:41:30;99021.88;;;21.77;54.96
40574;BME280;26283;49.020;8.644;2023-07-31T09:43:56;99023.50;;;21.78;54.93
40574;BME280;26283;49.020;8.644;2023-07-31T09:46:21;99027.06;;;21.79;54.86
40574;BME280;26283;49.020;8.644;2023-07-31T09:48:47;99030.63;;;21.79;54.81
40574;BME280;26283;49.020;8.644;2023-07-31T09:51:13;99027.59;;;21.81;54.78
40574;BME280;26283;49.020;8.644;2023-07-31T09:53:38;99027.28;;;21.82;54.64
40574;BME280;26283;49.020;8.644;2023-07-31T09:56:04;99017.94;;;21.83;54.63
40574;BME280;26283;49.020;8.644;2023-07-31T09:58:34;99015.22;;;21.83;54.59
40574;BME280;26283;49.020;8.644;2023-07-31T10:01:01;99014.91;;;21.85;54.59
40574;BME280;26283;49.020;8.644;2023-07-31T10:03:27;99022.03;;;21.86;54.60
40574;BME280;26283;49.020;8.644;2023-07-31T10:05:55;99009.91;;;21.87;54.62
40574;BME280;26283;49.020;8.644;2023-07-31T10:08:26;99007.97;;;21.87;54.62
40574;BME280;26283;49.020;8.644;2023-07-31T10:10:54;99003.31;;;21.88;54.63
40574;BME280;26283;49.020;8.644;2023-07-31T10:13:22;99001.38;;;21.88;54.64
40574;BME280;26283;49.020;8.644;2023-07-31T10:15:48;98995.59;;;21.90;54.64
40574;BME280;26283;49.020;8.644;2023-07-31T10:18:14;99004.66;;;21.90;54.67
40574;BME280;26283;49.020;8.644;2023-07-31T10:20:41;98999.97;;;21.91;54.68
40574;BME280;26283;49.020;8.644;2023-07-31T10:23:07;99001.59;;;21.92;54.71
40574;BME280;26283;49.020;8.644;2023-07-31T10:25:32;99003.25;;;21.93;54.70
40574;BME280;26283;49.020;8.644;2023-07-31T10:27:59;99006.81;;;21.94;54.70
40574;BME280;26283;49.020;8.644;2023-07-31T10:30:26;99011.19;;;21.95;54.71
40574;BME280;26283;49.020;8.644;2023-07-31T10:32:53;99009.25;;;21.95;54.71
40574;BME280;26283;49.020;8.644;2023-07-31T10:35:20;99010.06;;;21.96;54.72
40574;BME280;26283;49.020;8.644;2023-07-31T10:37:47;99021.56;;;21.98;54.71
40574;BME280;26283;49.020;8.644;2023-07-31T10:40:19;99005.91;;;21.98;54.71
40574;BME280;26283;49.020;8.644;2023-07-31T10:42:55;99019.34;;;22.00;54.70
40574;BME280;26283;49.020;8.644;2023-07-31T10:45:27;99018.25;;;22.01;54.69
40574;BME280;26283;49.020;8.644;2023-07-31T10:48:15;99018.75;;;22.03;54.68
40574;BME280;26283;49.020;8.644;2023-07-31T10:50:49;99014.91;;;22.04;54.68
40574;BME280;26283;49.020;8.644;2023-07-31T10:53:25;99011.06;;;22.05;54.69
40574;BME280;26283;49.020;8.644;2023-07-31T10:55:51;99009.13;;;22.05;54.69
40574;BME280;26283;49.020;8.644;2023-07-31T10:58:19;99015.13;;;22.07;54.69
40574;BME280;26283;49.020;8.644;2023-07-31T11:00:45;99004.97;;;22.08;54.67
40574;BME280;26283;49.020;8.644;2023-07-31T11:03:14;99006.56;;;22.09;54.63
40574;BME280;26283;49.020;8.644;2023-07-31T11:08:13;99000.47;;;22.12;54.55
40574;BME280;26283;49.020;8.644;2023-07-31T11:10:39;98993.88;;;22.13;54.51
40574;BME280;26283;49.020;8.644;2023-07-31T11:13:05;99000.69;;;22.15;54.49
40574;BME280;26283;49.020;8.644;2023-07-31T11:15:31;98978.75;;;22.15;54.45
40574;BME280;26283;49.020;8.644;2023-07-31T11:17:56;98975.69;;;22.17;54.41
40574;BME280;26283;49.020;8.644;2023-07-31T11:20:24;98980.06;;;22.18;54.38
40574;BME280;26283;49.020;8.644;2023-07-31T11:22:49;98978.16;;;22.18;54.35
40574;BME280;26283;49.020;8.644;2023-07-31T11:25:15;98975.09;;;22.20;54.31
40574;BME280;26283;49.020;8.644;2023-07-31T11:27:41;98963.81;;;22.21;54.30
40574;BME280;26283;49.020;8.644;2023-07-31T11:30:09;98966.28;;;22.23;54.26
40574;BME280;26283;49.020;8.644;2023-07-31T11:32:36;98965.16;;;22.24;54.21
40574;BME280;26283;49.020;8.644;2023-07-31T11:35:02;98970.34;;;22.26;54.18
40574;BME280;26283;49.020;8.644;2023-07-31T11:37:42;98971.16;;;22.26;54.15
40574;BME280;26283;49.020;8.644;2023-07-31T11:40:08;98964.56;;;22.27;54.11
40574;BME280;26283;49.020;8.644;2023-07-31T11:42:35;98969.41;;;22.30;54.08
40574;BME280;26283;49.020;8.644;2023-07-31T11:45:04;98968.28;;;22.31;54.04
40574;BME280;26283;49.020;8.644;2023-07-31T11:47:32;98965.25;;;22.33;54.02
40574;BME280;26283;49.020;8.644;2023-07-31T11:50:00;98951.53;;;22.33;53.98
40574;BME280;26283;49.020;8.644;2023-07-31T11:52:25;98949.59;;;22.33;53.97
40574;BME280;26283;49.020;8.644;2023-07-31T11:54:51;98943.81;;;22.35;53.92
40574;BME280;26283;49.020;8.644;2023-07-31T11:57:18;98944.63;;;22.35;53.90
40574;BME280;26283;49.020;8.644;2023-07-31T11:59:45;98954.19;;;22.38;53.87
40574;BME280;26283;49.020;8.644;2023-07-31T12:02:10;98950.31;;;22.39;53.84
40574;BME280;26283;49.020;8.644;2023-07-31T12:04:36;98952.75;;;22.40;53.81
40574;BME280;26283;49.020;8.644;2023-07-31T12:07:01;98945.66;;;22.39;53.78
40574;BME280;26283;49.020;8.644;2023-07-31T12:09:27;98945.03;;;22.42;53.75
40574;BME280;26283;49.020;8.644;2023-07-31T12:11:52;98943.09;;;22.43;53.73
40574;BME280;26283;49.020;8.644;2023-07-31T12:14:24;98932.94;;;22.43;53.69
40574;BME280;26283;49.020;8.644;2023-07-31T12:16:57;98940.06;;;22.44;53.66
40574;BME280;26283;49.020;8.644;2023-07-31T12:19:25;98916.97;;;22.45;53.64
40574;BME280;26283;49.020;8.644;2023-07-31T12:21:53;98920.25;;;22.47;53.61
40574;BME280;26283;49.020;8.644;2023-07-31T12:24:19;98915.56;;;22.48;53.60
40574;BME280;26283;49.020;8.644;2023-07-31T12:26:48;98924.63;;;22.48;53.58
40574;BME280;26283;49.020;8.644;2023-07-31T12:29:14;98918.00;;;22.49;53.55
40574;BME280;26283;49.020;8.644;2023-07-31T12:31:43;98904.78;;;22.51;53.53
40574;BME280;26283;49.020;8.644;2023-07-31T12:34:18;98922.84;;;22.52;53.50
40574;BME280;26283;49.020;8.644;2023-07-31T12:36:46;98915.44;;;22.53;53.48
40574;BME280;26283;49.020;8.644;2023-07-31T12:39:14;98914.00;;;22.55;53.46
40574;BME280;26283;49.020;8.644;2023-07-31T12:41:40;98912.09;;;22.56;53.43
40574;BME280;26283;49.020;8.644;2023-07-31T12:44:05;98894.50;;;22.57;53.40
40574;BME280;26283;49.020;8.644;2023-07-31T12:46:30;98889.50;;;22.59;53.39
40574;BME280;26283;49.020;8.644;2023-07-31T12:48:56;98891.94;;;22.61;53.36
40574;BME280;26283;49.020;8.644;2023-07-31T12:51:21;98894.69;;;22.61;53.34
40574;BME280;26283;49.020;8.644;2023-07-31T12:53:47;98893.56;;;22.62;53.31
40574;BME280;26283;49.020;8.644;2023-07-31T12:56:12;98885.03;;;22.63;53.28
40574;BME280;26283;49.020;8.644;2023-07-31T12:58:38;98885.84;;;22.64;53.26
40574;BME280;26283;49.020;8.644;2023-07-31T13:01:03;98882.78;;;22.65;53.26
40574;BME280;26283;49.020;8.644;2023-07-31T13:03:28;98880.84;;;22.66;53.25
40574;BME280;26283;49.020;8.644;2023-07-31T13:05:54;98873.94;;;22.68;53.22
40574;BME280;26283;49.020;8.644;2023-07-31T13:08:20;98859.09;;;22.69;53.17
40574;BME280;26283;49.020;8.644;2023-07-31T13:10:45;98865.41;;;22.70;53.15